createdAt,value
2022-11-04T00:02:36.507Z,5.61
2022-11-04T00:08:01.365Z,5.62
2022-11-04T00:13:07.361Z,5.60
2022-11-04T00:18:13.583Z,5.60
2022-11-04T00:23:38.245Z,5.62
2022-11-04T00:28:44.348Z,5.61
2022-11-04T00:33:51.992Z,5.54
2022-11-04T00:38:58.190Z,5.46
2022-11-04T00:44:05.508Z,5.42
2022-11-04T00:49:12.933Z,5.38
2022-11-04T00:54:18.654Z,5.33
2022-11-04T00:59:24.452Z,5.28
2022-11-04T01:04:30.568Z,5.27
2022-11-04T01:09:36.526Z,5.30
2022-11-04T01:14:42.239Z,5.29
2022-11-04T01:19:48.487Z,5.26
2022-11-04T01:24:54.399Z,5.29
2022-11-04T01:30:00.052Z,5.35
2022-11-04T01:35:07.124Z,5.40
2022-11-04T01:40:13.449Z,5.42
2022-11-04T01:45:21.528Z,5.49
2022-11-04T01:50:31.036Z,5.59
2022-11-04T01:55:41.963Z,5.68
2022-11-04T02:00:48.574Z,5.73
2022-11-04T02:05:55.841Z,5.78
2022-11-04T02:11:04.068Z,5.87
2022-11-04T02:16:19.521Z,5.99
2022-11-04T02:21:55.170Z,6.10
2022-11-04T02:27:24.324Z,6.20
2022-11-04T02:32:42.635Z,6.30
2022-11-04T02:37:56.639Z,6.40
2022-11-04T02:43:12.516Z,6.46
2022-11-04T02:48:27.384Z,6.52
2022-11-04T02:53:39.726Z,6.56
2022-11-04T02:58:52.210Z,6.58
2022-11-04T03:04:06.625Z,6.58
2022-11-04T03:09:15.356Z,6.58
2022-11-04T03:14:27.489Z,6.59
2022-11-04T03:19:42.620Z,6.57
2022-11-04T03:24:50.108Z,6.56
2022-11-04T03:30:01.586Z,6.59
2022-11-04T03:35:07.195Z,6.66
2022-11-04T03:40:15.143Z,6.70
2022-11-04T03:45:21.074Z,6.71
2022-11-04T03:50:29.744Z,6.73
2022-11-04T03:55:46.700Z,6.75
2022-11-04T04:01:00.373Z,6.72
2022-11-04T04:06:15.531Z,6.71
2022-11-04T04:11:28.130Z,6.76
2022-11-04T04:16:38.878Z,6.82
2022-11-04T04:21:49.977Z,6.83
2022-11-04T04:27:16.351Z,6.86
2022-11-04T04:32:27.114Z,6.91
2022-11-04T04:37:32.314Z,6.94
2022-11-04T04:42:58.330Z,6.95
2022-11-04T04:48:05.739Z,7.01
2022-11-04T04:53:12.711Z,7.05
2022-11-04T04:58:18.576Z,7.08
2022-11-04T05:03:26.521Z,7.11
2022-11-04T05:08:32.308Z,7.14
2022-11-04T05:13:38.259Z,7.16
2022-11-04T05:18:44.565Z,7.21
2022-11-04T05:23:50.821Z,7.23
2022-11-04T05:28:56.829Z,7.24
2022-11-04T05:34:02.893Z,7.26
2022-11-04T05:39:11.238Z,7.30
2022-11-04T05:44:17.539Z,7.30
2022-11-04T05:49:23.809Z,7.30
2022-11-04T05:54:29.886Z,7.33
2022-11-04T05:59:35.989Z,7.36
2022-11-04T06:04:41.980Z,7.36
2022-11-04T06:09:48.620Z,7.36
2022-11-04T06:14:54.609Z,7.39
2022-11-04T06:20:00.819Z,7.46
2022-11-04T06:25:10.738Z,7.51
2022-11-04T06:30:17.534Z,7.57
2022-11-04T06:35:23.472Z,7.59
2022-11-04T06:40:29.501Z,7.62
2022-11-04T06:45:35.700Z,7.63
2022-11-04T06:50:41.922Z,7.68
2022-11-04T06:55:48.293Z,7.71
2022-11-04T07:00:54.599Z,7.75
2022-11-04T07:06:05.399Z,7.82
2022-11-04T07:11:11.892Z,7.90
2022-11-04T07:16:18.859Z,7.95
2022-11-04T07:21:25.144Z,8.03
2022-11-04T07:26:31.115Z,8.12
2022-11-04T07:31:37.047Z,8.19
2022-11-04T07:36:43.411Z,8.22
2022-11-04T07:41:49.241Z,8.28
2022-11-04T07:46:55.503Z,8.41
2022-11-04T07:52:01.374Z,8.59
2022-11-04T07:57:07.470Z,8.87
2022-11-04T08:02:13.518Z,9.03
2022-11-04T08:07:20.914Z,9.10
2022-11-04T08:12:28.056Z,9.11
2022-11-04T08:17:36.079Z,9.02
2022-11-04T08:22:43.395Z,8.99
2022-11-04T08:27:49.587Z,9.09
2022-11-04T08:32:55.468Z,9.20
2022-11-04T08:38:01.706Z,9.25
2022-11-04T08:43:08.826Z,9.28
2022-11-04T08:48:17.567Z,9.37
2022-11-04T08:53:24.049Z,9.45
2022-11-04T08:58:30.153Z,9.46
2022-11-04T09:03:37.689Z,9.41
2022-11-04T09:08:44.517Z,9.36
2022-11-04T09:13:51.068Z,9.29
2022-11-04T09:18:58.348Z,9.33
2022-11-04T09:24:04.578Z,9.43
2022-11-04T09:29:10.902Z,9.53
2022-11-04T09:34:18.092Z,9.55
2022-11-04T09:39:27.074Z,9.50
2022-11-04T09:45:07.339Z,9.51
2022-11-04T09:50:21.169Z,9.59
2022-11-04T09:55:35.835Z,9.69
2022-11-04T10:00:47.325Z,9.76
2022-11-04T10:06:08.400Z,9.86
2022-11-04T10:11:21.593Z,9.92
2022-11-04T10:16:44.840Z,10.04
2022-11-04T10:22:02.210Z,10.24
2022-11-04T10:27:16.011Z,10.60
2022-11-04T10:32:26.448Z,10.94
2022-11-04T10:37:34.578Z,11.44
2022-11-04T10:42:41.395Z,12.26
2022-11-04T10:47:56.552Z,12.57
2022-11-04T10:53:14.525Z,12.76
2022-11-04T10:58:24.721Z,12.80
2022-11-04T11:03:33.305Z,12.92
2022-11-04T11:08:39.790Z,13.08
2022-11-04T11:13:47.444Z,13.21
2022-11-04T11:19:17.681Z,13.39
2022-11-04T11:24:26.279Z,13.55
2022-11-04T11:29:40.466Z,13.41
2022-11-04T11:34:48.958Z,13.44
2022-11-04T11:39:54.940Z,13.84
2022-11-04T11:45:05.177Z,14.01
2022-11-04T11:50:18.325Z,14.10
2022-11-04T11:55:27.729Z,14.42
2022-11-04T12:00:40.250Z,14.62
2022-11-04T12:11:28.856Z,14.58
2022-11-04T12:16:44.061Z,14.66
2022-11-04T12:22:00.925Z,14.76
2022-11-04T12:27:14.263Z,15.07
2022-11-04T12:32:33.999Z,15.37
2022-11-04T12:37:50.538Z,15.56
2022-11-04T12:43:07.644Z,15.21
2022-11-04T12:48:26.582Z,14.81
2022-11-04T12:53:45.042Z,14.38
2022-11-04T12:59:08.784Z,14.06
2022-11-04T13:15:52.524Z,13.21
2022-11-04T13:21:03.349Z,13.02
2022-11-04T13:26:14.703Z,12.89
2022-11-04T13:31:23.233Z,12.80
2022-11-04T13:36:40.342Z,12.65
2022-11-04T13:42:15.243Z,12.56
2022-11-04T13:47:27.020Z,12.42
2022-11-04T13:52:52.375Z,12.28
2022-11-04T13:58:01.997Z,12.17
2022-11-04T14:03:40.891Z,12.04
2022-11-04T14:09:18.469Z,11.91
2022-11-04T14:14:24.481Z,11.77
2022-11-04T14:20:00.880Z,11.62
2022-11-04T14:25:34.712Z,11.47
2022-11-04T14:30:49.000Z,11.31
2022-11-04T14:35:57.734Z,11.17
2022-11-04T14:41:23.845Z,11.03
2022-11-04T14:46:33.943Z,10.89
2022-11-04T14:51:42.926Z,10.76
2022-11-04T14:56:49.139Z,10.65
2022-11-04T15:01:56.103Z,10.54
2022-11-04T15:07:04.694Z,10.43
2022-11-04T15:12:33.540Z,10.34
2022-11-04T15:17:39.555Z,10.29
2022-11-04T15:22:47.828Z,10.29
2022-11-04T15:27:54.168Z,10.30
2022-11-04T15:33:02.438Z,10.28
2022-11-04T15:38:13.050Z,10.27
2022-11-04T15:43:20.028Z,10.26
2022-11-04T15:48:33.962Z,10.28
2022-11-04T15:53:50.875Z,10.33
2022-11-04T15:58:59.591Z,10.36
2022-11-04T16:04:07.533Z,10.36
2022-11-04T16:09:29.059Z,10.32
2022-11-04T16:14:35.031Z,10.28
2022-11-04T16:19:44.989Z,10.28
2022-11-04T16:24:54.036Z,10.27
2022-11-04T16:30:06.984Z,10.24
2022-11-04T16:35:19.399Z,10.18
2022-11-04T16:40:25.949Z,10.15
2022-11-04T16:45:34.781Z,10.14
2022-11-04T16:50:41.610Z,10.12
2022-11-04T16:55:47.698Z,10.07
2022-11-04T17:00:53.785Z,10.04
2022-11-04T17:05:59.939Z,10.03
2022-11-04T17:11:06.269Z,9.99
2022-11-04T17:16:15.192Z,9.94
2022-11-04T17:21:23.307Z,9.91
2022-11-04T17:26:29.408Z,9.89
2022-11-04T17:31:35.254Z,9.86
2022-11-04T17:36:41.526Z,9.84
2022-11-04T17:42:07.167Z,9.83
2022-11-04T17:47:13.092Z,9.80
2022-11-04T17:52:19.104Z,9.77
2022-11-04T17:57:24.910Z,9.78
2022-11-04T18:02:31.083Z,9.76
2022-11-04T18:07:37.369Z,9.72
2022-11-04T18:12:43.542Z,9.68
2022-11-04T18:17:51.121Z,9.68
2022-11-04T18:22:58.785Z,9.67
2022-11-04T18:28:05.061Z,9.63
2022-11-04T18:33:11.479Z,9.61
2022-11-04T18:38:17.824Z,9.62
2022-11-04T18:43:23.868Z,9.63
2022-11-04T18:48:29.796Z,9.65
2022-11-04T18:53:36.526Z,9.65
2022-11-04T18:58:45.194Z,9.68
2022-11-04T19:03:51.745Z,9.71
2022-11-04T19:09:05.127Z,9.71
2022-11-04T19:14:18.896Z,9.72
2022-11-04T19:19:24.839Z,9.74
2022-11-04T19:24:30.861Z,9.75
2022-11-04T19:29:36.956Z,9.75
2022-11-04T19:34:43.535Z,9.73
2022-11-04T19:39:49.555Z,9.75
2022-11-04T19:44:55.353Z,9.78
2022-11-04T19:50:01.371Z,9.77
2022-11-04T19:55:08.719Z,9.75
2022-11-04T20:00:15.217Z,9.71
2022-11-04T20:05:21.286Z,9.68
2022-11-04T20:10:27.344Z,9.65
2022-11-04T20:15:33.388Z,9.60
2022-11-04T20:20:39.241Z,9.55
2022-11-04T20:25:45.852Z,9.53
2022-11-04T20:30:51.968Z,9.50
2022-11-04T20:35:58.000Z,9.44
2022-11-04T20:41:10.420Z,9.40
2022-11-04T20:46:18.466Z,9.37
2022-11-04T20:51:28.871Z,9.33
2022-11-04T20:56:37.029Z,9.26
2022-11-04T21:01:46.603Z,9.21
2022-11-04T21:06:53.222Z,9.18
2022-11-04T21:11:59.377Z,9.12
2022-11-04T21:17:05.854Z,9.07
2022-11-04T21:22:11.849Z,9.01
2022-11-04T21:27:17.971Z,8.98
2022-11-04T21:32:23.765Z,8.99
2022-11-04T21:37:33.527Z,9.00
2022-11-04T21:42:42.473Z,8.99
2022-11-04T21:47:48.681Z,9.03
2022-11-04T21:52:54.473Z,9.08
2022-11-04T21:58:00.565Z,9.09
2022-11-04T22:03:06.548Z,9.07
2022-11-04T22:08:18.356Z,9.05
2022-11-04T22:13:24.647Z,9.05
2022-11-04T22:18:32.349Z,9.08
2022-11-04T22:23:38.977Z,9.09
2022-11-04T22:28:46.649Z,9.06
2022-11-04T22:33:53.675Z,9.04
2022-11-04T22:39:00.147Z,9.09
2022-11-04T22:44:06.309Z,9.10
2022-11-04T22:49:14.507Z,9.06
2022-11-04T22:54:20.380Z,9.01
2022-11-04T22:59:26.288Z,8.98
2022-11-04T23:04:32.175Z,8.99
2022-11-04T23:09:57.191Z,9.00
2022-11-04T23:15:22.693Z,8.99
2022-11-04T23:20:29.746Z,9.00
2022-11-04T23:25:35.783Z,9.03
2022-11-04T23:30:44.353Z,9.04
2022-11-04T23:36:09.360Z,9.01
2022-11-04T23:41:34.413Z,9.02
2022-11-04T23:46:59.552Z,9.06
2022-11-04T23:52:24.942Z,9.06
2022-11-04T23:57:49.479Z,9.05
